createdAt,value
2023-01-23T00:00:20.184Z,0.73
2023-01-23T00:05:24.609Z,0.84
2023-01-23T00:10:29.248Z,0.80
2023-01-23T00:15:35.035Z,0.83
2023-01-23T00:20:39.429Z,0.75
2023-01-23T00:25:43.904Z,0.73
2023-01-23T00:30:49.752Z,0.78
2023-01-23T00:35:56.276Z,0.76
2023-01-23T00:41:00.631Z,0.76
2023-01-23T00:46:06.851Z,0.75
2023-01-23T00:51:11.535Z,0.78
2023-01-23T00:56:16.025Z,0.74
2023-01-23T01:01:22.922Z,0.69
2023-01-23T01:06:29.748Z,0.71
2023-01-23T01:11:35.703Z,0.76
2023-01-23T01:16:45.361Z,0.78
2023-01-23T01:21:49.976Z,0.78
2023-01-23T01:26:55.212Z,0.74
2023-01-23T01:32:02.147Z,0.82
2023-01-23T01:37:06.659Z,0.76
2023-01-23T01:42:11.173Z,0.70
2023-01-23T01:47:17.184Z,0.74
2023-01-23T01:52:23.240Z,0.69
2023-01-23T01:57:32.917Z,0.68
2023-01-23T02:02:44.930Z,0.72
2023-01-23T02:07:56.239Z,0.68
2023-01-23T02:13:26.302Z,0.63
2023-01-23T02:18:35.162Z,0.65
2023-01-23T02:23:56.738Z,0.69
2023-01-23T02:29:06.533Z,0.63
2023-01-23T02:34:22.433Z,0.71
2023-01-23T02:39:28.169Z,0.67
2023-01-23T02:44:35.329Z,0.73
2023-01-23T02:49:42.811Z,0.72
2023-01-23T02:54:48.080Z,0.67
2023-01-23T03:00:11.615Z,0.69
2023-01-23T03:05:17.370Z,0.68
2023-01-23T03:10:22.245Z,0.64
2023-01-23T03:15:28.537Z,0.62
2023-01-23T03:20:40.602Z,0.62
2023-01-23T03:25:45.722Z,0.65
2023-01-23T03:30:51.880Z,0.58
2023-01-23T03:35:56.415Z,0.63
2023-01-23T03:41:18.682Z,0.65
2023-01-23T03:46:25.231Z,0.58
2023-01-23T03:51:29.957Z,0.65
2023-01-23T03:56:35.043Z,0.63
2023-01-23T04:01:41.049Z,0.58
2023-01-23T04:06:45.491Z,0.60
2023-01-23T04:11:50.324Z,0.64
2023-01-23T04:16:56.439Z,0.61
2023-01-23T04:22:02.144Z,0.67
2023-01-23T04:27:11.102Z,0.61
2023-01-23T04:32:16.951Z,0.61
2023-01-23T04:37:23.929Z,0.66
2023-01-23T04:42:28.215Z,0.62
2023-01-23T04:47:49.581Z,0.60
2023-01-23T04:52:54.603Z,0.65
2023-01-23T04:57:58.990Z,0.69
2023-01-23T05:03:07.449Z,0.61
2023-01-23T05:08:12.945Z,0.60
2023-01-23T05:13:19.433Z,0.70
2023-01-23T05:18:26.220Z,0.70
2023-01-23T05:23:31.722Z,0.74
2023-01-23T05:28:36.432Z,0.69
2023-01-23T05:33:43.027Z,0.69
2023-01-23T05:38:48.468Z,0.69
2023-01-23T05:43:53.661Z,0.68
2023-01-23T05:49:08.498Z,0.69
2023-01-23T05:54:13.368Z,0.70
2023-01-23T05:59:22.074Z,0.70
2023-01-23T06:04:42.642Z,0.63
2023-01-23T06:09:56.887Z,0.70
2023-01-23T06:15:01.272Z,0.67
2023-01-23T06:20:09.641Z,0.69
2023-01-23T06:25:16.095Z,0.68
2023-01-23T06:30:21.325Z,0.64
2023-01-23T06:35:28.532Z,0.71
2023-01-23T06:40:33.299Z,0.72
2023-01-23T06:45:58.162Z,0.71
2023-01-23T06:51:05.158Z,0.73
2023-01-23T06:56:11.688Z,0.71
2023-01-23T07:01:19.420Z,0.69
2023-01-23T07:06:43.722Z,0.79
2023-01-23T07:11:51.923Z,0.85
2023-01-23T07:16:56.812Z,0.87
2023-01-23T07:22:03.554Z,0.92
2023-01-23T07:27:08.179Z,0.94
2023-01-23T07:32:12.409Z,1.00
2023-01-23T07:37:18.178Z,0.91
2023-01-23T07:42:22.813Z,0.99
2023-01-23T07:47:29.363Z,1.06
2023-01-23T07:52:35.335Z,1.11
2023-01-23T07:57:39.655Z,1.11
2023-01-23T08:02:44.141Z,1.09
2023-01-23T08:07:52.297Z,1.16
2023-01-23T08:13:02.396Z,1.19
2023-01-23T08:18:07.511Z,1.19
2023-01-23T08:23:13.533Z,1.21
2023-01-23T08:28:18.666Z,1.10
2023-01-23T08:33:23.982Z,1.11
2023-01-23T08:38:30.156Z,1.19
2023-01-23T08:43:34.895Z,1.24
2023-01-23T08:48:39.977Z,1.34
2023-01-23T08:53:45.809Z,1.34
2023-01-23T08:58:51.550Z,1.33
2023-01-23T09:03:56.086Z,1.36
2023-01-23T09:09:02.880Z,1.33
2023-01-23T09:14:07.576Z,1.46
2023-01-23T09:19:12.850Z,1.38
2023-01-23T09:24:18.807Z,1.50
2023-01-23T09:29:23.675Z,1.48
2023-01-23T09:34:28.393Z,1.46
2023-01-23T09:39:34.255Z,1.36
2023-01-23T09:44:43.464Z,1.34
2023-01-23T09:49:58.492Z,1.36
2023-01-23T09:55:14.418Z,1.38
2023-01-23T10:00:26.104Z,1.30
2023-01-23T10:05:41.651Z,1.48
2023-01-23T10:11:00.002Z,1.46
2023-01-23T10:16:50.685Z,1.49
2023-01-23T10:22:04.670Z,1.51
2023-01-23T10:27:21.044Z,1.57
2023-01-23T10:32:29.074Z,1.53
2023-01-23T10:37:49.906Z,1.59
2023-01-23T10:42:55.731Z,1.54
2023-01-23T10:48:03.663Z,1.63
2023-01-23T10:53:10.331Z,1.58
2023-01-23T10:58:33.235Z,1.61
2023-01-23T11:03:37.972Z,1.59
2023-01-23T11:08:51.192Z,1.56
2023-01-23T11:14:12.020Z,1.68
2023-01-23T11:19:23.531Z,1.56
2023-01-23T11:24:40.820Z,1.61
2023-01-23T11:30:04.247Z,1.59
2023-01-23T11:35:16.992Z,1.65
2023-01-23T11:40:22.164Z,1.54
2023-01-23T11:45:49.504Z,1.65
2023-01-23T11:51:03.709Z,1.58
2023-01-23T11:56:44.557Z,1.55
2023-01-23T12:02:30.831Z,1.68
2023-01-23T12:07:40.923Z,1.51
2023-01-23T12:13:12.580Z,1.67
2023-01-23T12:18:35.299Z,1.51
2023-01-23T12:24:00.076Z,1.61
2023-01-23T12:29:30.400Z,1.59
2023-01-23T12:35:02.648Z,1.69
2023-01-23T12:40:14.043Z,1.67
2023-01-23T12:45:25.936Z,1.61
2023-01-23T12:50:43.433Z,1.62
2023-01-23T12:56:00.597Z,1.59
2023-01-23T13:01:39.310Z,1.53
2023-01-23T13:07:04.158Z,1.56
2023-01-23T13:12:20.583Z,1.54
2023-01-23T13:17:39.033Z,1.67
2023-01-23T13:22:45.004Z,1.58
2023-01-23T13:27:52.928Z,1.57
2023-01-23T13:33:00.824Z,1.57
2023-01-23T13:38:37.648Z,1.51
2023-01-23T13:43:54.527Z,1.51
2023-01-23T14:21:52.254Z,1.31
2023-01-23T14:27:10.454Z,1.38
2023-01-23T14:32:24.887Z,1.35
2023-01-23T14:37:32.484Z,1.35
2023-01-23T14:42:39.240Z,1.37
2023-01-23T14:47:53.437Z,1.30
2023-01-23T14:53:04.620Z,1.31
2023-01-23T14:58:19.851Z,1.26
2023-01-23T15:03:42.558Z,1.26
2023-01-23T15:08:48.110Z,1.33
2023-01-23T15:14:01.234Z,1.36
2023-01-23T15:19:20.291Z,1.27
2023-01-23T15:24:29.526Z,1.24
2023-01-23T15:29:36.178Z,1.19
2023-01-23T15:34:40.615Z,1.21
2023-01-23T15:39:51.519Z,1.15
2023-01-23T15:45:01.391Z,1.16
2023-01-23T15:50:08.648Z,1.11
2023-01-23T15:55:14.509Z,1.10
2023-01-23T16:00:25.092Z,1.04
2023-01-23T16:05:34.169Z,1.03
2023-01-23T16:10:40.341Z,1.01
2023-01-23T16:15:45.951Z,1.01
2023-01-23T16:20:50.555Z,1.08
2023-01-23T16:25:55.552Z,1.11
2023-01-23T16:31:01.265Z,1.07
2023-01-23T16:36:08.581Z,1.08
2023-01-23T16:41:13.241Z,1.05
2023-01-23T16:46:20.113Z,1.11
2023-01-23T16:51:26.086Z,1.13
2023-01-23T16:56:37.159Z,1.07
2023-01-23T17:01:46.664Z,1.05
2023-01-23T17:06:51.734Z,1.08
2023-01-23T17:11:58.210Z,1.05
2023-01-23T17:17:08.834Z,1.06
2023-01-23T17:22:22.032Z,1.04
2023-01-23T17:27:26.562Z,1.01
2023-01-23T17:32:36.000Z,1.02
2023-01-23T17:37:41.212Z,1.09
2023-01-23T17:42:46.182Z,1.10
2023-01-23T17:47:55.590Z,1.06
2023-01-23T17:53:00.735Z,1.04
2023-01-23T17:58:05.147Z,1.05
2023-01-23T18:03:15.141Z,1.01
2023-01-23T18:08:22.690Z,1.04
2023-01-23T18:13:38.199Z,1.00
2023-01-23T18:18:46.860Z,0.97
2023-01-23T18:23:52.075Z,0.96
2023-01-23T18:29:04.656Z,0.97
2023-01-23T18:34:28.410Z,0.95
2023-01-23T18:40:00.383Z,0.98
2023-01-23T18:45:13.879Z,0.90
2023-01-23T18:50:22.914Z,0.91
2023-01-23T18:55:37.981Z,0.87
2023-01-23T19:00:49.830Z,0.91
2023-01-23T19:05:56.202Z,0.93
2023-01-23T19:11:07.433Z,0.94
2023-01-23T19:16:17.608Z,0.90
2023-01-23T19:21:27.496Z,0.87
2023-01-23T19:26:34.798Z,0.93
2023-01-23T19:31:41.611Z,0.90
2023-01-23T19:36:48.408Z,0.91
2023-01-23T19:41:53.390Z,0.91
2023-01-23T19:46:57.926Z,0.93
2023-01-23T19:52:06.087Z,0.91
2023-01-23T19:57:10.564Z,0.87
2023-01-23T20:02:20.369Z,0.90
2023-01-23T20:07:25.973Z,0.94
2023-01-23T20:12:30.267Z,0.91
2023-01-23T20:17:34.572Z,0.90
2023-01-23T20:22:41.273Z,0.92
2023-01-23T20:27:45.923Z,0.93
2023-01-23T20:32:50.077Z,0.94
2023-01-23T20:37:56.094Z,0.91
2023-01-23T20:43:00.610Z,0.95
2023-01-23T20:48:05.762Z,0.93
2023-01-23T20:53:34.285Z,0.93
2023-01-23T20:58:58.642Z,0.95
2023-01-23T21:04:03.213Z,0.93
2023-01-23T21:09:08.846Z,0.96
2023-01-23T21:14:14.059Z,0.93
2023-01-23T21:19:19.224Z,0.95
2023-01-23T21:24:25.322Z,0.93
2023-01-23T21:29:30.079Z,0.94
2023-01-23T21:34:34.551Z,0.91
2023-01-23T21:39:41.054Z,0.90
2023-01-23T21:44:45.495Z,0.85
2023-01-23T21:49:51.635Z,0.86
2023-01-23T21:54:57.614Z,0.91
2023-01-23T22:00:19.496Z,0.91
2023-01-23T22:05:23.704Z,0.89
2023-01-23T22:10:29.407Z,0.94
2023-01-23T22:15:33.863Z,0.94
2023-01-23T22:20:39.569Z,0.90
2023-01-23T22:25:45.121Z,0.89
2023-01-23T22:30:49.378Z,0.95
2023-01-23T22:35:53.743Z,0.90
2023-01-23T22:41:00.990Z,0.95
2023-01-23T22:46:12.119Z,0.97
2023-01-23T22:51:20.080Z,1.02
2023-01-23T22:56:27.797Z,1.02
2023-01-23T23:01:32.325Z,1.00
2023-01-23T23:06:36.897Z,1.05
2023-01-23T23:11:42.904Z,1.00
2023-01-23T23:16:47.129Z,0.99
2023-01-23T23:21:51.778Z,1.02
2023-01-23T23:26:57.356Z,0.97
2023-01-23T23:32:01.906Z,1.01
2023-01-23T23:37:06.758Z,1.03
2023-01-23T23:42:12.575Z,1.06
2023-01-23T23:47:17.045Z,1.04
2023-01-23T23:52:21.540Z,1.00
2023-01-23T23:57:27.027Z,1.02
